createdAt,value
2018-01-25T00:00:56.977Z,61.74
2018-01-25T00:03:24.566Z,61.96
2018-01-25T00:05:52.157Z,62.79
2018-01-25T00:08:19.762Z,61.84
2018-01-25T00:10:47.357Z,62.62
2018-01-25T00:13:14.974Z,63.09
2018-01-25T00:15:42.558Z,62.62
2018-01-25T00:18:10.312Z,62.34
2018-01-25T00:20:37.895Z,63.56
2018-01-25T00:23:05.479Z,62.41
2018-01-25T00:25:33.093Z,62.81
2018-01-25T00:28:00.709Z,62.88
2018-01-25T00:30:28.325Z,63.06
2018-01-25T00:32:55.908Z,63.69
2018-01-25T00:35:23.591Z,64.04
2018-01-25T00:37:51.193Z,63.05
2018-01-25T00:40:18.791Z,63.92
2018-01-25T00:42:46.406Z,63.63
2018-01-25T00:45:13.993Z,62.95
2018-01-25T00:47:41.600Z,64.13
2018-01-25T00:50:09.182Z,64.37
2018-01-25T00:52:36.950Z,63.70
2018-01-25T00:55:04.564Z,64.50
2018-01-25T00:57:32.167Z,64.33
2018-01-25T00:59:59.887Z,65.10
2018-01-25T01:02:27.484Z,65.55
2018-01-25T01:04:55.096Z,65.13
2018-01-25T01:07:22.691Z,64.64
2018-01-25T01:09:50.316Z,64.50
2018-01-25T01:12:17.927Z,64.15
2018-01-25T01:14:45.507Z,64.56
2018-01-25T01:17:13.137Z,65.04
2018-01-25T01:19:40.730Z,64.92
2018-01-25T01:22:08.361Z,64.92
2018-01-25T01:24:35.955Z,65.47
2018-01-25T01:27:03.572Z,65.32
2018-01-25T01:29:31.171Z,65.29
2018-01-25T01:31:58.761Z,66.21
2018-01-25T01:34:26.385Z,66.08
2018-01-25T01:36:53.981Z,65.75
2018-01-25T01:39:21.595Z,65.33
2018-01-25T01:41:49.183Z,66.11
2018-01-25T01:44:16.949Z,66.03
2018-01-25T01:46:44.546Z,66.24
2018-01-25T01:49:12.169Z,66.24
2018-01-25T01:51:39.785Z,66.36
2018-01-25T01:54:07.380Z,66.74
2018-01-25T01:56:34.984Z,66.46
2018-01-25T01:59:02.572Z,66.82
2018-01-25T02:01:30.226Z,66.29
2018-01-25T02:03:57.818Z,66.51
2018-01-25T02:06:25.399Z,66.84
2018-01-25T02:08:53.012Z,66.65
2018-01-25T02:11:20.596Z,66.74
2018-01-25T02:13:48.199Z,66.43
2018-01-25T02:16:15.791Z,66.94
2018-01-25T02:18:43.596Z,67.09
2018-01-25T02:21:11.188Z,66.85
2018-01-25T02:23:38.781Z,66.43
2018-01-25T02:26:06.387Z,66.05
2018-01-25T02:28:33.983Z,65.91
2018-01-25T02:31:01.594Z,66.05
2018-01-25T02:33:29.204Z,66.71
2018-01-25T02:35:56.819Z,66.40
2018-01-25T02:38:24.413Z,66.39
2018-01-25T02:40:51.998Z,66.14
2018-01-25T02:43:19.616Z,66.06
2018-01-25T02:45:47.206Z,66.22
2018-01-25T02:48:14.821Z,65.57
2018-01-25T02:50:42.407Z,65.76
2018-01-25T02:53:10.051Z,66.07
2018-01-25T02:55:37.675Z,65.90
2018-01-25T02:58:05.256Z,65.93
2018-01-25T03:00:32.875Z,65.53
2018-01-25T03:03:00.458Z,65.44
2018-01-25T03:05:28.455Z,65.57
2018-01-25T03:07:56.053Z,64.97
2018-01-25T03:10:23.631Z,65.14
2018-01-25T03:12:51.270Z,65.38
2018-01-25T03:15:18.868Z,65.25
2018-01-25T03:17:46.984Z,65.22
2018-01-25T03:20:14.580Z,65.32
2018-01-25T03:22:42.161Z,65.38
2018-01-25T03:25:09.763Z,65.61
2018-01-25T03:27:37.350Z,65.39
2018-01-25T03:30:04.968Z,64.91
2018-01-25T03:32:32.581Z,64.86
2018-01-25T03:35:00.404Z,64.70
2018-01-25T03:37:27.991Z,64.08
2018-01-25T03:39:55.569Z,64.57
2018-01-25T03:42:23.188Z,64.47
2018-01-25T03:44:50.906Z,64.88
2018-01-25T03:47:18.550Z,64.30
2018-01-25T03:49:46.134Z,64.76
2018-01-25T03:52:13.731Z,64.36
2018-01-25T03:54:41.343Z,64.86
2018-01-25T03:57:08.948Z,64.50
2018-01-25T03:59:36.585Z,64.78
2018-01-25T04:02:04.187Z,64.72
2018-01-25T04:04:31.806Z,64.33
2018-01-25T04:06:59.429Z,64.31
2018-01-25T04:09:27.014Z,65.21
2018-01-25T04:11:54.622Z,64.64
2018-01-25T04:14:22.211Z,64.42
2018-01-25T04:16:50.020Z,64.47
2018-01-25T04:19:17.611Z,64.33
2018-01-25T04:21:45.206Z,64.56
2018-01-25T04:24:12.816Z,65.05
2018-01-25T04:26:40.394Z,64.68
2018-01-25T04:29:08.011Z,64.68
2018-01-25T04:31:35.588Z,64.52
2018-01-25T04:34:03.367Z,64.51
2018-01-25T04:36:30.955Z,64.63
2018-01-25T04:38:58.536Z,64.07
2018-01-25T04:41:26.148Z,64.41
2018-01-25T04:43:53.747Z,65.02
2018-01-25T04:46:21.399Z,64.44
2018-01-25T04:48:48.995Z,65.44
2018-01-25T04:51:16.799Z,64.42
2018-01-25T04:53:44.396Z,65.01
2018-01-25T04:56:11.975Z,64.45
2018-01-25T04:58:39.589Z,64.39
2018-01-25T05:01:07.184Z,64.45
2018-01-25T05:03:34.791Z,64.85
2018-01-25T05:06:02.370Z,65.56
2018-01-25T05:08:30.331Z,65.27
2018-01-25T05:10:57.920Z,64.43
2018-01-25T05:13:25.515Z,64.51
2018-01-25T05:15:53.131Z,64.77
2018-01-25T05:18:20.720Z,64.28
2018-01-25T05:20:48.330Z,64.56
2018-01-25T05:23:15.927Z,64.58
2018-01-25T05:25:43.573Z,64.04
2018-01-25T05:28:11.203Z,63.95
2018-01-25T05:30:38.793Z,64.52
2018-01-25T05:33:06.404Z,64.69
2018-01-25T05:35:34.045Z,64.49
2018-01-25T05:38:01.628Z,64.45
2018-01-25T05:40:29.223Z,64.56
2018-01-25T05:42:56.812Z,63.98
2018-01-25T05:45:24.437Z,64.58
2018-01-25T05:47:52.033Z,64.49
2018-01-25T05:50:19.639Z,64.37
2018-01-25T05:52:47.228Z,63.68
2018-01-25T05:55:14.806Z,64.20
2018-01-25T05:57:42.425Z,64.39
2018-01-25T06:00:10.056Z,63.96
2018-01-25T06:02:37.733Z,64.00
2018-01-25T06:05:05.327Z,64.84
2018-01-25T06:07:32.935Z,64.57
2018-01-25T06:10:00.558Z,65.42
2018-01-25T06:12:28.168Z,64.95
2018-01-25T06:14:55.789Z,64.79
2018-01-25T06:17:23.415Z,64.67
2018-01-25T06:19:51.011Z,64.31
2018-01-25T06:22:18.622Z,64.30
2018-01-25T06:24:46.299Z,64.33
2018-01-25T06:27:13.914Z,64.19
2018-01-25T06:29:41.528Z,64.19
2018-01-25T06:32:09.133Z,63.82
2018-01-25T06:34:36.766Z,63.84
2018-01-25T06:37:04.368Z,63.50
2018-01-25T06:39:31.975Z,63.26
2018-01-25T06:41:59.560Z,63.26
2018-01-25T06:44:27.149Z,62.95
2018-01-25T06:46:54.763Z,63.39
2018-01-25T06:49:22.380Z,62.72
2018-01-25T06:51:50.001Z,62.67
2018-01-25T06:54:18.098Z,62.17
2018-01-25T06:56:45.706Z,62.80
2018-01-25T06:59:13.312Z,62.39
2018-01-25T07:01:40.894Z,62.13
2018-01-25T07:04:08.681Z,62.47
2018-01-25T07:06:36.275Z,62.24
2018-01-25T07:09:03.871Z,62.25
2018-01-25T07:11:31.473Z,62.05
2018-01-25T07:13:59.063Z,62.34
2018-01-25T07:16:26.851Z,61.58
2018-01-25T07:18:54.455Z,62.03
2018-01-25T07:21:22.040Z,62.04
2018-01-25T07:23:49.645Z,62.17
2018-01-25T07:26:17.235Z,61.93
2018-01-25T07:28:44.871Z,62.36
2018-01-25T07:31:12.460Z,62.13
2018-01-25T07:33:40.051Z,62.35
2018-01-25T07:36:07.667Z,61.50
2018-01-25T07:38:35.306Z,61.66
2018-01-25T07:41:02.952Z,61.48
2018-01-25T07:43:30.571Z,61.80
2018-01-25T07:45:58.153Z,62.43
2018-01-25T07:48:25.770Z,61.93
2018-01-25T07:50:53.360Z,61.95
2018-01-25T07:53:21.135Z,62.13
2018-01-25T07:55:48.736Z,61.33
2018-01-25T07:58:25.150Z,61.25
2018-01-25T08:00:53.016Z,61.70
2018-01-25T08:03:20.611Z,61.42
2018-01-25T08:05:48.227Z,61.50
2018-01-25T08:08:15.820Z,61.79
2018-01-25T08:10:43.440Z,61.87
2018-01-25T08:13:16.649Z,60.94
2018-01-25T08:15:44.326Z,61.20
2018-01-25T08:18:11.917Z,60.90
2018-01-25T08:20:39.517Z,61.60
2018-01-25T08:23:07.126Z,61.16
2018-01-25T08:25:34.788Z,60.85
2018-01-25T08:28:02.640Z,61.13
2018-01-25T08:30:30.236Z,61.17
2018-01-25T08:32:57.842Z,60.85
2018-01-25T08:35:25.458Z,60.74
2018-01-25T08:37:53.050Z,60.67
2018-01-25T08:40:20.841Z,60.29
2018-01-25T08:42:48.509Z,60.66
2018-01-25T08:45:16.127Z,60.97
2018-01-25T08:47:43.741Z,60.35
2018-01-25T08:50:11.331Z,60.45
2018-01-25T08:52:39.158Z,60.22
2018-01-25T08:55:06.920Z,59.85
2018-01-25T08:57:34.520Z,59.49
2018-01-25T09:00:02.137Z,59.60
2018-01-25T09:02:30.026Z,60.10
2018-01-25T09:04:57.733Z,59.85
2018-01-25T09:07:25.319Z,58.93
2018-01-25T09:09:52.921Z,59.10
2018-01-25T09:12:20.567Z,59.41
2018-01-25T09:14:48.269Z,59.26
2018-01-25T09:17:15.985Z,59.42
2018-01-25T09:19:43.767Z,58.68
2018-01-25T09:22:11.462Z,59.93
2018-01-25T09:24:39.119Z,59.29
2018-01-25T09:27:06.908Z,59.41
2018-01-25T09:29:34.541Z,58.79
2018-01-25T09:32:02.168Z,58.46
2018-01-25T09:34:29.786Z,59.00
2018-01-25T09:36:57.395Z,58.15
2018-01-25T09:39:25.044Z,58.80
2018-01-25T09:41:52.732Z,58.79
2018-01-25T09:44:20.351Z,58.37
2018-01-25T09:46:49.117Z,58.17
2018-01-25T09:49:16.769Z,57.88
2018-01-25T09:51:44.542Z,58.13
2018-01-25T09:54:12.533Z,58.21
2018-01-25T09:56:40.203Z,59.40
2018-01-25T09:59:07.869Z,58.29
2018-01-25T10:01:35.983Z,57.92
2018-01-25T10:04:03.651Z,58.04
2018-01-25T10:06:31.914Z,57.82
2018-01-25T10:08:59.633Z,57.31
2018-01-25T10:11:27.279Z,57.50
2018-01-25T10:13:54.945Z,58.44
2018-01-25T10:16:22.836Z,57.24
2018-01-25T10:18:50.451Z,57.34
2018-01-25T10:21:18.039Z,57.05
2018-01-25T10:23:45.638Z,56.95
2018-01-25T10:26:13.285Z,57.12
2018-01-25T10:28:41.126Z,56.58
2018-01-25T10:31:08.531Z,56.77
2018-01-25T10:33:36.120Z,56.46
2018-01-25T10:36:03.728Z,56.59
2018-01-25T10:38:32.636Z,55.86
2018-01-25T10:41:01.379Z,56.21
2018-01-25T10:43:29.131Z,55.68
2018-01-25T10:45:56.759Z,55.36
2018-01-25T10:48:24.356Z,55.96
2018-01-25T10:50:51.948Z,55.70
2018-01-25T10:53:19.594Z,55.95
2018-01-25T10:55:48.820Z,55.91
2018-01-25T10:58:16.501Z,56.07
2018-01-25T11:00:49.551Z,55.10
2018-01-25T11:03:17.163Z,55.71
2018-01-25T11:05:44.876Z,55.55
2018-01-25T11:08:12.492Z,55.18
2018-01-25T11:10:40.080Z,55.46
2018-01-25T11:13:07.806Z,55.36
2018-01-25T11:15:35.398Z,55.19
2018-01-25T11:18:03.012Z,55.01
2018-01-25T11:20:30.638Z,54.75
2018-01-25T11:22:58.233Z,55.15
2018-01-25T11:25:25.881Z,55.07
2018-01-25T11:27:53.468Z,55.32
2018-01-25T11:30:21.082Z,55.10
2018-01-25T11:32:48.871Z,55.36
2018-01-25T11:35:16.467Z,55.28
2018-01-25T11:37:44.119Z,55.21
2018-01-25T11:40:11.724Z,54.59
2018-01-25T11:42:39.306Z,54.73
2018-01-25T11:45:06.921Z,55.35
2018-01-25T11:47:34.646Z,54.69
2018-01-25T11:50:02.397Z,54.82
2018-01-25T11:52:29.987Z,54.88
2018-01-25T11:54:57.607Z,55.38
2018-01-25T11:57:25.227Z,54.36
2018-01-25T11:59:52.828Z,54.25
2018-01-25T12:02:20.454Z,54.25
2018-01-25T12:04:49.735Z,53.80
2018-01-25T12:07:17.688Z,53.96
2018-01-25T12:09:45.794Z,54.54
2018-01-25T12:12:13.473Z,54.06
2018-01-25T12:14:42.416Z,53.75
2018-01-25T12:17:10.024Z,53.71
2018-01-25T12:19:37.627Z,53.42
2018-01-25T12:22:05.413Z,53.80
2018-01-25T12:24:33.039Z,53.64
2018-01-25T12:27:00.676Z,53.45
2018-01-25T12:29:29.457Z,53.26
2018-01-25T12:31:57.079Z,53.50
2018-01-25T12:34:24.724Z,53.11
2018-01-25T12:36:52.324Z,52.75
2018-01-25T12:39:21.527Z,52.72
2018-01-25T12:41:49.157Z,52.88
2018-01-25T12:44:22.525Z,52.50
2018-01-25T12:47:03.924Z,52.42
2018-01-25T12:49:34.973Z,52.72
2018-01-25T12:52:14.114Z,53.24
2018-01-25T12:54:42.476Z,52.71
2018-01-25T12:57:10.105Z,52.65
2018-01-25T12:59:37.712Z,52.32
2018-01-25T13:02:05.426Z,51.94
2018-01-25T13:04:33.006Z,52.06
2018-01-25T13:07:01.095Z,52.17
2018-01-25T13:09:28.738Z,52.01
2018-01-25T13:11:56.707Z,51.86
2018-01-25T13:14:24.299Z,52.07
2018-01-25T13:16:51.894Z,52.09
2018-01-25T13:19:19.508Z,52.05
2018-01-25T13:21:47.111Z,52.32
2018-01-25T13:24:14.743Z,52.24
2018-01-25T13:26:42.342Z,52.83
2018-01-25T13:29:11.393Z,52.58
2018-01-25T13:31:38.999Z,52.62
2018-01-25T13:34:07.316Z,52.44
2018-01-25T13:36:34.933Z,52.85
2018-01-25T13:39:02.555Z,52.92
2018-01-25T13:41:30.159Z,52.79
2018-01-25T13:43:57.761Z,52.82
2018-01-25T13:46:25.687Z,53.10
2018-01-25T13:48:53.283Z,53.06
2018-01-25T13:51:24.020Z,52.54
2018-01-25T13:53:52.978Z,52.75
2018-01-25T13:56:21.931Z,53.04
2018-01-25T13:58:49.602Z,53.13
2018-01-25T14:01:17.243Z,52.96
2018-01-25T14:03:45.111Z,53.19
2018-01-25T14:06:12.970Z,53.68
2018-01-25T14:08:42.334Z,53.94
2018-01-25T14:11:09.949Z,54.16
2018-01-25T14:13:37.555Z,54.07
2018-01-25T14:16:05.169Z,53.94
2018-01-25T14:18:32.965Z,54.56
2018-01-25T14:21:00.787Z,54.42
2018-01-25T14:23:28.390Z,54.52
2018-01-25T14:25:55.976Z,54.92
2018-01-25T14:28:23.587Z,55.11
2018-01-25T14:30:51.180Z,55.39
2018-01-25T14:33:18.872Z,55.51
2018-01-25T14:35:47.642Z,55.95
2018-01-25T14:38:15.291Z,55.58
2018-01-25T14:40:42.917Z,55.79
2018-01-25T14:43:10.530Z,55.98
2018-01-25T14:45:38.181Z,56.38
2018-01-25T14:48:05.878Z,56.15
2018-01-25T14:50:33.525Z,56.38
2018-01-25T14:53:01.522Z,56.98
2018-01-25T14:55:29.320Z,56.32
2018-01-25T14:57:56.911Z,56.47
2018-01-25T15:00:24.629Z,56.34
2018-01-25T15:02:52.243Z,56.78
2018-01-25T15:05:19.839Z,56.70
2018-01-25T15:07:47.457Z,57.18
2018-01-25T15:10:15.055Z,57.25
2018-01-25T15:12:42.734Z,57.07
2018-01-25T15:15:10.324Z,57.73
2018-01-25T15:17:37.917Z,57.22
2018-01-25T15:20:05.547Z,57.07
2018-01-25T15:22:33.177Z,57.05
2018-01-25T15:25:06.222Z,57.22
2018-01-25T15:27:33.822Z,57.68
2018-01-25T15:30:01.886Z,57.64
2018-01-25T15:32:29.491Z,57.82
2018-01-25T15:34:57.086Z,57.65
2018-01-25T15:37:24.712Z,57.33
2018-01-25T15:39:52.312Z,57.73
2018-01-25T15:42:19.921Z,57.88
2018-01-25T15:44:47.508Z,57.36
2018-01-25T15:47:15.164Z,57.26
2018-01-25T15:49:42.767Z,57.68
2018-01-25T15:52:10.375Z,58.28
2018-01-25T15:54:38.005Z,58.48
2018-01-25T15:57:05.595Z,58.99
2018-01-25T15:59:33.233Z,59.04
2018-01-25T16:02:00.823Z,59.41
2018-01-25T16:04:28.426Z,59.20
2018-01-25T16:06:56.020Z,59.67
2018-01-25T16:09:23.865Z,60.01
2018-01-25T16:11:51.443Z,60.45
2018-01-25T16:14:19.250Z,60.85
2018-01-25T16:16:46.867Z,60.44
2018-01-25T16:19:14.468Z,60.58
2018-01-25T16:21:42.087Z,60.88
2018-01-25T16:24:09.891Z,61.11
2018-01-25T16:26:37.553Z,60.99
2018-01-25T16:29:05.154Z,60.69
2018-01-25T16:31:32.772Z,61.01
2018-01-25T16:34:00.400Z,60.73
2018-01-25T16:36:27.987Z,60.41
2018-01-25T16:38:55.608Z,60.90
2018-01-25T16:41:23.201Z,61.60
2018-01-25T16:43:51.237Z,60.99
2018-01-25T16:46:18.847Z,61.25
2018-01-25T16:48:46.439Z,60.71
2018-01-25T16:51:14.061Z,60.67
2018-01-25T16:53:41.661Z,60.83
2018-01-25T16:56:09.287Z,60.54
2018-01-25T16:58:36.884Z,61.32
2018-01-25T17:01:04.519Z,61.47
2018-01-25T17:03:32.107Z,61.35
2018-01-25T17:05:59.738Z,61.60
2018-01-25T17:08:27.378Z,61.27
2018-01-25T17:10:54.968Z,62.54
2018-01-25T17:13:22.769Z,61.61
2018-01-25T17:15:50.359Z,62.09
2018-01-25T17:18:18.000Z,62.30
2018-01-25T17:20:45.592Z,62.16
2018-01-25T17:23:13.186Z,62.26
2018-01-25T17:25:40.801Z,62.01
2018-01-25T17:28:08.407Z,62.39
2018-01-25T17:30:36.050Z,62.81
2018-01-25T17:33:03.669Z,62.96
2018-01-25T17:35:31.264Z,63.26
2018-01-25T17:37:58.881Z,63.34
2018-01-25T17:40:26.479Z,64.74
2018-01-25T17:42:54.103Z,64.75
2018-01-25T17:45:21.768Z,64.61
2018-01-25T17:47:49.403Z,64.85
2018-01-25T17:50:17.004Z,64.69
2018-01-25T17:52:44.600Z,64.66
2018-01-25T17:55:12.209Z,64.93
2018-01-25T17:57:39.815Z,64.80
2018-01-25T18:00:07.442Z,64.77
2018-01-25T18:02:35.037Z,64.72
2018-01-25T18:05:02.846Z,64.71
2018-01-25T18:07:30.445Z,64.89
2018-01-25T18:09:58.032Z,64.95
2018-01-25T18:12:25.664Z,64.69
2018-01-25T18:14:53.259Z,64.63
2018-01-25T18:17:20.875Z,65.75
2018-01-25T18:19:48.470Z,65.77
2018-01-25T18:22:16.483Z,65.92
2018-01-25T18:24:44.081Z,66.02
2018-01-25T18:27:11.675Z,66.10
2018-01-25T18:29:39.291Z,65.74
2018-01-25T18:32:06.909Z,65.98
2018-01-25T18:34:34.530Z,65.79
2018-01-25T18:37:02.355Z,65.27
2018-01-25T18:39:29.978Z,65.75
2018-01-25T18:41:57.569Z,66.08
2018-01-25T18:44:25.202Z,66.47
2018-01-25T18:46:52.808Z,66.68
2018-01-25T18:49:20.427Z,66.47
2018-01-25T18:51:48.019Z,66.67
2018-01-25T18:54:15.647Z,66.65
2018-01-25T18:56:43.245Z,66.54
2018-01-25T18:59:10.892Z,66.29
2018-01-25T19:01:38.511Z,65.93
2018-01-25T19:04:06.148Z,66.49
2018-01-25T19:06:33.763Z,66.39
2018-01-25T19:09:01.360Z,66.55
2018-01-25T19:11:28.994Z,66.61
2018-01-25T19:13:56.643Z,66.36
2018-01-25T19:16:24.265Z,66.03
2018-01-25T19:18:51.872Z,66.13
2018-01-25T19:21:19.470Z,65.48
2018-01-25T19:23:47.092Z,65.90
2018-01-25T19:26:14.701Z,65.85
2018-01-25T19:28:42.543Z,66.11
2018-01-25T19:31:10.168Z,65.85
2018-01-25T19:33:37.755Z,66.11
2018-01-25T19:36:05.381Z,65.94
2018-01-25T19:38:32.971Z,65.57
2018-01-25T19:41:00.586Z,65.51
2018-01-25T19:43:28.193Z,66.53
2018-01-25T19:45:55.972Z,66.24
2018-01-25T19:48:23.560Z,66.54
2018-01-25T19:50:51.161Z,66.45
2018-01-25T19:53:18.777Z,66.62
2018-01-25T19:55:46.362Z,66.66
2018-01-25T19:58:13.980Z,66.82
2018-01-25T20:00:41.570Z,66.70
2018-01-25T20:03:09.226Z,66.69
2018-01-25T20:05:36.828Z,66.90
2018-01-25T20:08:04.442Z,66.84
2018-01-25T20:10:32.064Z,67.14
2018-01-25T20:12:59.655Z,67.10
2018-01-25T20:15:27.396Z,66.89
2018-01-25T20:17:54.979Z,67.08
2018-01-25T20:20:23.036Z,67.05
2018-01-25T20:22:50.628Z,67.19
2018-01-25T20:25:19.188Z,67.29
2018-01-25T20:27:46.812Z,67.60
2018-01-25T20:30:14.401Z,67.69
2018-01-25T20:32:42.263Z,67.52
2018-01-25T20:35:09.851Z,67.42
2018-01-25T20:37:37.453Z,67.45
2018-01-25T20:40:05.062Z,67.37
2018-01-25T20:42:32.658Z,67.83
2018-01-25T20:45:00.272Z,67.58
2018-01-25T20:47:27.864Z,67.82
2018-01-25T20:49:55.491Z,67.67
2018-01-25T20:52:23.087Z,68.22
2018-01-25T20:54:50.686Z,68.19
2018-01-25T20:57:18.300Z,68.07
2018-01-25T20:59:45.911Z,68.27
2018-01-25T21:02:13.514Z,68.44
2018-01-25T21:04:41.112Z,68.70
2018-01-25T21:07:08.691Z,68.37
2018-01-25T21:09:36.315Z,68.04
2018-01-25T21:12:03.912Z,68.50
2018-01-25T21:14:31.713Z,68.31
2018-01-25T21:16:59.296Z,67.97
2018-01-25T21:19:26.933Z,68.17
2018-01-25T21:21:54.531Z,68.00
2018-01-25T21:24:22.124Z,67.54
2018-01-25T21:26:49.788Z,67.82
2018-01-25T21:29:17.386Z,68.45
2018-01-25T21:31:45.104Z,68.45
2018-01-25T21:34:12.691Z,68.87
2018-01-25T21:36:41.872Z,68.52
2018-01-25T21:39:09.549Z,68.39
2018-01-25T21:41:37.148Z,68.38
2018-01-25T21:44:04.752Z,68.58
2018-01-25T21:46:32.344Z,68.56
2018-01-25T21:49:00.204Z,68.49
2018-01-25T21:51:27.790Z,67.93
2018-01-25T21:53:55.380Z,67.85
2018-01-25T21:56:23.010Z,68.09
2018-01-25T21:58:50.595Z,67.74
2018-01-25T22:01:18.209Z,68.73
2018-01-25T22:03:45.804Z,67.95
2018-01-25T22:06:13.416Z,67.80
2018-01-25T22:08:40.995Z,66.93
2018-01-25T22:11:08.749Z,67.10
2018-01-25T22:13:36.363Z,66.79
2018-01-25T22:16:03.967Z,67.04
2018-01-25T22:18:31.571Z,66.66
2018-01-25T22:20:59.159Z,66.47
2018-01-25T22:23:27.493Z,66.52
2018-01-25T22:25:55.081Z,66.33
2018-01-25T22:28:22.710Z,65.88
2018-01-25T22:30:50.311Z,65.76
2018-01-25T22:33:18.133Z,65.58
2018-01-25T22:35:45.723Z,65.38
2018-01-25T22:38:13.320Z,65.29
2018-01-25T22:40:40.932Z,65.71
2018-01-25T22:43:08.527Z,65.99
2018-01-25T22:45:36.155Z,66.78
2018-01-25T22:48:03.738Z,65.58
2018-01-25T22:50:32.519Z,65.74
2018-01-25T22:53:00.110Z,66.08
2018-01-25T22:55:27.699Z,66.71
2018-01-25T22:57:55.318Z,66.32
2018-01-25T23:00:34.714Z,66.35
2018-01-25T23:03:02.394Z,66.31
2018-01-25T23:05:29.980Z,66.60
2018-01-25T23:07:57.907Z,66.45
2018-01-25T23:10:25.492Z,66.00
2018-01-25T23:12:53.213Z,66.10
2018-01-25T23:15:20.811Z,66.00
2018-01-25T23:17:48.395Z,66.30
2018-01-25T23:20:16.015Z,66.90
2018-01-25T23:22:43.625Z,67.27
2018-01-25T23:25:11.271Z,67.21
2018-01-25T23:27:38.849Z,66.97
2018-01-25T23:30:06.466Z,66.92
2018-01-25T23:32:34.088Z,66.99
2018-01-25T23:35:01.665Z,67.07
2018-01-25T23:37:29.286Z,66.97
2018-01-25T23:39:56.878Z,66.10
2018-01-25T23:42:24.847Z,66.38
2018-01-25T23:44:52.440Z,66.47
2018-01-25T23:47:20.020Z,66.24
2018-01-25T23:49:47.625Z,66.76
2018-01-25T23:52:15.282Z,66.97
2018-01-25T23:54:42.899Z,66.37
2018-01-25T23:57:10.490Z,66.21
2018-01-25T23:59:38.126Z,65.68
